KMKG

Muskegon County Airport

Muskegon, Michigan, USA
METAR KMKG 211555Z 11005KT 10SM FEW035 FEW250 M16/M23 A3060 RMK AO2 SLP379 T11561228 $
Observed Flight Rules
Jan-21 @ 15:55 UTC (47 minutes ago) Visual Flight Rules
Wind Visibility Clouds
110° at 5 knots 10 miles
  • Few at 3,500' AGL
  • Few at 25,000' AGL
Temperatures Readings
Current -16°C / 3°F
Dewpoint -23°C / -9°F
Humidity 55%
Altimeter 30.6" Hg
Pressure 1037.9 hPa
Elevation 191
METAR KMKG 211555Z 11005KT 10SM FEW035 FEW250 M16/M23 A3060 RMK AO2 SLP379 T11561228 $
Observed Flight Rules
Jan-21 @ 15:55 UTC
(47 minutes ago)
VFR
Wind Visibility
110° at 5 knots 10 miles
Clouds
  • Few at 3,500' AGL
  • Few at 25,000' AGL
Temperature Dewpoint
-16°C / 3°F -23°C / -9°F
Humidity Altimeter Pressure
55% 30.6" Hg 1037.9 hPa